sensor_id;sensor_type;location;lat;lon;timestamp;P1;durP1;ratioP1;P2;durP2;ratioP2
29120;SDS011;16191;49.548;8.658;2022-11-18T00:01:37;3.03;;;1.52;;
29120;SDS011;16191;49.548;8.658;2022-11-18T00:04:04;3.13;;;1.55;;
29120;SDS011;16191;49.548;8.658;2022-11-18T00:06:31;5.25;;;1.80;;
29120;SDS011;16191;49.548;8.658;2022-11-18T00:08:58;4.05;;;1.65;;
29120;SDS011;16191;49.548;8.658;2022-11-18T00:11:25;3.22;;;1.20;;
29120;SDS011;16191;49.548;8.658;2022-11-18T00:14:15;5.88;;;1.40;;
29120;SDS011;16191;49.548;8.658;2022-11-18T00:16:59;2.58;;;1.20;;
29120;SDS011;16191;49.548;8.658;2022-11-18T00:19:27;9.73;;;1.60;;
29120;SDS011;16191;49.548;8.658;2022-11-18T00:21:59;4.03;;;1.20;;
29120;SDS011;16191;49.548;8.658;2022-11-18T00:24:26;8.57;;;1.60;;
29120;SDS011;16191;49.548;8.658;2022-11-18T00:26:54;4.13;;;1.70;;
29120;SDS011;16191;49.548;8.658;2022-11-18T00:29:21;4.03;;;1.17;;
29120;SDS011;16191;49.548;8.658;2022-11-18T00:31:49;4.82;;;1.75;;
29120;SDS011;16191;49.548;8.658;2022-11-18T00:34:16;3.10;;;1.10;;
29120;SDS011;16191;49.548;8.658;2022-11-18T00:36:44;3.95;;;1.17;;
29120;SDS011;16191;49.548;8.658;2022-11-18T00:39:13;3.58;;;1.42;;
29120;SDS011;16191;49.548;8.658;2022-11-18T00:41:42;1.75;;;0.95;;
29120;SDS011;16191;49.548;8.658;2022-11-18T00:44:28;5.25;;;1.70;;
29120;SDS011;16191;49.548;8.658;2022-11-18T00:46:55;5.00;;;1.15;;
29120;SDS011;16191;49.548;8.658;2022-11-18T00:49:22;2.72;;;1.20;;
29120;SDS011;16191;49.548;8.658;2022-11-18T00:51:49;3.70;;;1.20;;
29120;SDS011;16191;49.548;8.658;2022-11-18T00:54:16;5.15;;;1.27;;
29120;SDS011;16191;49.548;8.658;2022-11-18T00:56:43;1.85;;;0.90;;
29120;SDS011;16191;49.548;8.658;2022-11-18T00:59:10;4.18;;;0.90;;
29120;SDS011;16191;49.548;8.658;2022-11-18T01:01:36;2.17;;;1.00;;
29120;SDS011;16191;49.548;8.658;2022-11-18T01:04:03;2.35;;;1.15;;
29120;SDS011;16191;49.548;8.658;2022-11-18T01:06:30;5.30;;;1.23;;
29120;SDS011;16191;49.548;8.658;2022-11-18T01:08:57;6.10;;;1.55;;
29120;SDS011;16191;49.548;8.658;2022-11-18T01:11:24;5.43;;;1.00;;
29120;SDS011;16191;49.548;8.658;2022-11-18T01:14:10;2.45;;;1.17;;
29120;SDS011;16191;49.548;8.658;2022-11-18T01:16:37;8.98;;;1.70;;
29120;SDS011;16191;49.548;8.658;2022-11-18T01:19:04;5.18;;;1.40;;
29120;SDS011;16191;49.548;8.658;2022-11-18T01:21:30;4.00;;;1.33;;
29120;SDS011;16191;49.548;8.658;2022-11-18T01:23:57;2.60;;;1.05;;
29120;SDS011;16191;49.548;8.658;2022-11-18T01:26:23;3.22;;;1.05;;
29120;SDS011;16191;49.548;8.658;2022-11-18T01:28:54;2.50;;;1.00;;
29120;SDS011;16191;49.548;8.658;2022-11-18T01:31:22;2.92;;;1.10;;
29120;SDS011;16191;49.548;8.658;2022-11-18T01:33:50;7.18;;;1.75;;
29120;SDS011;16191;49.548;8.658;2022-11-18T01:36:18;2.92;;;1.05;;
29120;SDS011;16191;49.548;8.658;2022-11-18T01:38:47;3.95;;;1.50;;
29120;SDS011;16191;49.548;8.658;2022-11-18T01:41:14;6.55;;;1.42;;
29120;SDS011;16191;49.548;8.658;2022-11-18T01:46:35;3.67;;;1.60;;
29120;SDS011;16191;49.548;8.658;2022-11-18T01:49:03;4.78;;;1.58;;
29120;SDS011;16191;49.548;8.658;2022-11-18T01:51:35;6.63;;;1.73;;
29120;SDS011;16191;49.548;8.658;2022-11-18T01:54:11;3.78;;;1.33;;
29120;SDS011;16191;49.548;8.658;2022-11-18T01:56:44;7.97;;;1.63;;
29120;SDS011;16191;49.548;8.658;2022-11-18T01:59:19;6.53;;;1.40;;
29120;SDS011;16191;49.548;8.658;2022-11-18T02:02:10;2.58;;;1.48;;
29120;SDS011;16191;49.548;8.658;2022-11-18T02:04:59;5.38;;;1.70;;
29120;SDS011;16191;49.548;8.658;2022-11-18T02:07:49;3.40;;;1.58;;
29120;SDS011;16191;49.548;8.658;2022-11-18T02:10:36;4.70;;;1.45;;
29120;SDS011;16191;49.548;8.658;2022-11-18T02:13:23;3.85;;;1.60;;
29120;SDS011;16191;49.548;8.658;2022-11-18T02:16:13;2.90;;;1.55;;
29120;SDS011;16191;49.548;8.658;2022-11-18T02:24:19;3.15;;;1.50;;
29120;SDS011;16191;49.548;8.658;2022-11-18T02:27:15;4.45;;;1.38;;
29120;SDS011;16191;49.548;8.658;2022-11-18T02:32:22;4.15;;;1.75;;
29120;SDS011;16191;49.548;8.658;2022-11-18T02:35:06;3.75;;;1.65;;
29120;SDS011;16191;49.548;8.658;2022-11-18T02:37:35;8.07;;;1.80;;
29120;SDS011;16191;49.548;8.658;2022-11-18T02:40:11;6.85;;;1.80;;
29120;SDS011;16191;49.548;8.658;2022-11-18T02:42:43;5.07;;;1.73;;
29120;SDS011;16191;49.548;8.658;2022-11-18T02:45:14;7.15;;;2.00;;
29120;SDS011;16191;49.548;8.658;2022-11-18T02:47:45;5.55;;;1.85;;
29120;SDS011;16191;49.548;8.658;2022-11-18T02:50:14;2.10;;;1.50;;
29120;SDS011;16191;49.548;8.658;2022-11-18T02:52:45;6.22;;;1.90;;
29120;SDS011;16191;49.548;8.658;2022-11-18T02:55:15;5.15;;;1.73;;
29120;SDS011;16191;49.548;8.658;2022-11-18T02:57:44;4.80;;;1.52;;
29120;SDS011;16191;49.548;8.658;2022-11-18T03:00:12;4.28;;;1.77;;
29120;SDS011;16191;49.548;8.658;2022-11-18T03:02:43;3.42;;;1.40;;
29120;SDS011;16191;49.548;8.658;2022-11-18T03:05:48;5.13;;;2.45;;
29120;SDS011;16191;49.548;8.658;2022-11-18T03:08:12;3.13;;;1.40;;
29120;SDS011;16191;49.548;8.658;2022-11-18T03:10:48;3.40;;;1.75;;
29120;SDS011;16191;49.548;8.658;2022-11-18T03:13:26;6.15;;;2.05;;
29120;SDS011;16191;49.548;8.658;2022-11-18T03:16:05;6.47;;;2.08;;
29120;SDS011;16191;49.548;8.658;2022-11-18T03:18:44;4.93;;;2.38;;
29120;SDS011;16191;49.548;8.658;2022-11-18T03:21:25;6.72;;;2.10;;
29120;SDS011;16191;49.548;8.658;2022-11-18T03:27:17;4.50;;;1.98;;
29120;SDS011;16191;49.548;8.658;2022-11-18T03:29:57;3.55;;;2.05;;
29120;SDS011;16191;49.548;8.658;2022-11-18T03:32:29;4.60;;;2.40;;
29120;SDS011;16191;49.548;8.658;2022-11-18T03:35:00;3.65;;;1.80;;
29120;SDS011;16191;49.548;8.658;2022-11-18T03:37:32;5.50;;;2.38;;
29120;SDS011;16191;49.548;8.658;2022-11-18T03:40:08;6.93;;;2.00;;
29120;SDS011;16191;49.548;8.658;2022-11-18T03:42:44;6.18;;;2.70;;
29120;SDS011;16191;49.548;8.658;2022-11-18T03:45:16;7.13;;;2.00;;
29120;SDS011;16191;49.548;8.658;2022-11-18T03:47:50;7.57;;;2.58;;
29120;SDS011;16191;49.548;8.658;2022-11-18T03:50:22;8.38;;;2.40;;
29120;SDS011;16191;49.548;8.658;2022-11-18T03:52:53;5.47;;;2.15;;
29120;SDS011;16191;49.548;8.658;2022-11-18T03:55:22;7.78;;;2.50;;
29120;SDS011;16191;49.548;8.658;2022-11-18T03:57:57;6.70;;;2.25;;
29120;SDS011;16191;49.548;8.658;2022-11-18T04:00:31;11.90;;;2.75;;
29120;SDS011;16191;49.548;8.658;2022-11-18T04:03:02;3.28;;;2.22;;
29120;SDS011;16191;49.548;8.658;2022-11-18T04:05:30;7.57;;;2.70;;
29120;SDS011;16191;49.548;8.658;2022-11-18T04:08:02;4.18;;;2.13;;
29120;SDS011;16191;49.548;8.658;2022-11-18T04:10:41;5.05;;;2.25;;
29120;SDS011;16191;49.548;8.658;2022-11-18T04:13:19;4.28;;;2.42;;
29120;SDS011;16191;49.548;8.658;2022-11-18T04:15:49;4.45;;;2.42;;
29120;SDS011;16191;49.548;8.658;2022-11-18T04:18:16;4.88;;;2.58;;
29120;SDS011;16191;49.548;8.658;2022-11-18T04:20:43;5.50;;;2.65;;
29120;SDS011;16191;49.548;8.658;2022-11-18T04:23:10;5.88;;;2.28;;
29120;SDS011;16191;49.548;8.658;2022-11-18T04:25:37;7.50;;;2.78;;
29120;SDS011;16191;49.548;8.658;2022-11-18T04:28:04;4.78;;;1.95;;
29120;SDS011;16191;49.548;8.658;2022-11-18T04:30:31;5.03;;;2.40;;
29120;SDS011;16191;49.548;8.658;2022-11-18T04:32:58;6.45;;;2.40;;
29120;SDS011;16191;49.548;8.658;2022-11-18T04:35:25;7.78;;;2.70;;
29120;SDS011;16191;49.548;8.658;2022-11-18T04:37:53;4.18;;;2.70;;
29120;SDS011;16191;49.548;8.658;2022-11-18T04:40:19;9.07;;;2.67;;
29120;SDS011;16191;49.548;8.658;2022-11-18T04:42:46;6.97;;;2.78;;
29120;SDS011;16191;49.548;8.658;2022-11-18T04:45:13;10.18;;;3.50;;
29120;SDS011;16191;49.548;8.658;2022-11-18T04:47:40;5.63;;;3.08;;
29120;SDS011;16191;49.548;8.658;2022-11-18T04:50:07;8.63;;;3.00;;
29120;SDS011;16191;49.548;8.658;2022-11-18T04:52:34;8.48;;;3.40;;
29120;SDS011;16191;49.548;8.658;2022-11-18T04:55:01;5.40;;;3.10;;
29120;SDS011;16191;49.548;8.658;2022-11-18T04:57:28;6.20;;;3.38;;
29120;SDS011;16191;49.548;8.658;2022-11-18T04:59:54;6.68;;;2.80;;
29120;SDS011;16191;49.548;8.658;2022-11-18T05:02:21;5.03;;;2.92;;
29120;SDS011;16191;49.548;8.658;2022-11-18T05:04:48;9.73;;;3.65;;
29120;SDS011;16191;49.548;8.658;2022-11-18T05:07:15;5.55;;;3.72;;
29120;SDS011;16191;49.548;8.658;2022-11-18T05:09:41;9.88;;;4.70;;
29120;SDS011;16191;49.548;8.658;2022-11-18T05:12:11;11.13;;;5.78;;
29120;SDS011;16191;49.548;8.658;2022-11-18T05:14:58;11.40;;;4.88;;
29120;SDS011;16191;49.548;8.658;2022-11-18T05:17:25;9.60;;;4.50;;
29120;SDS011;16191;49.548;8.658;2022-11-18T05:19:52;8.38;;;4.70;;
29120;SDS011;16191;49.548;8.658;2022-11-18T05:22:19;6.30;;;5.15;;
29120;SDS011;16191;49.548;8.658;2022-11-18T05:24:45;9.38;;;5.10;;
29120;SDS011;16191;49.548;8.658;2022-11-18T05:27:12;9.90;;;7.22;;
29120;SDS011;16191;49.548;8.658;2022-11-18T05:29:40;8.52;;;5.70;;
29120;SDS011;16191;49.548;8.658;2022-11-18T05:32:06;7.90;;;5.32;;
29120;SDS011;16191;49.548;8.658;2022-11-18T05:34:33;9.18;;;5.75;;
29120;SDS011;16191;49.548;8.658;2022-11-18T05:37:00;9.20;;;4.35;;
29120;SDS011;16191;49.548;8.658;2022-11-18T05:39:26;7.50;;;2.47;;
29120;SDS011;16191;49.548;8.658;2022-11-18T05:41:53;4.35;;;2.47;;
29120;SDS011;16191;49.548;8.658;2022-11-18T05:44:38;2.92;;;2.00;;
29120;SDS011;16191;49.548;8.658;2022-11-18T05:47:05;5.45;;;2.72;;
29120;SDS011;16191;49.548;8.658;2022-11-18T05:49:31;4.78;;;2.15;;
29120;SDS011;16191;49.548;8.658;2022-11-18T05:51:58;3.70;;;1.77;;
29120;SDS011;16191;49.548;8.658;2022-11-18T05:54:24;3.80;;;1.90;;
29120;SDS011;16191;49.548;8.658;2022-11-18T05:56:52;3.20;;;1.35;;
29120;SDS011;16191;49.548;8.658;2022-11-18T05:59:19;4.82;;;1.73;;
29120;SDS011;16191;49.548;8.658;2022-11-18T06:01:51;2.95;;;1.25;;
29120;SDS011;16191;49.548;8.658;2022-11-18T06:04:22;5.45;;;1.83;;
29120;SDS011;16191;49.548;8.658;2022-11-18T06:06:57;2.88;;;1.15;;
29120;SDS011;16191;49.548;8.658;2022-11-18T06:09:29;3.28;;;1.42;;
29120;SDS011;16191;49.548;8.658;2022-11-18T06:12:00;9.10;;;1.42;;
29120;SDS011;16191;49.548;8.658;2022-11-18T06:14:32;4.63;;;1.00;;
29120;SDS011;16191;49.548;8.658;2022-11-18T06:17:04;4.50;;;1.20;;
29120;SDS011;16191;49.548;8.658;2022-11-18T06:19:35;2.70;;;1.20;;
29120;SDS011;16191;49.548;8.658;2022-11-18T06:22:02;2.45;;;1.35;;
29120;SDS011;16191;49.548;8.658;2022-11-18T06:24:30;2.05;;;1.20;;
29120;SDS011;16191;49.548;8.658;2022-11-18T06:26:58;2.55;;;1.42;;
29120;SDS011;16191;49.548;8.658;2022-11-18T06:29:25;3.35;;;1.30;;
29120;SDS011;16191;49.548;8.658;2022-11-18T06:31:54;4.70;;;1.00;;
29120;SDS011;16191;49.548;8.658;2022-11-18T06:34:21;3.35;;;1.73;;
29120;SDS011;16191;49.548;8.658;2022-11-18T06:36:47;2.58;;;0.90;;
29120;SDS011;16191;49.548;8.658;2022-11-18T06:39:14;2.00;;;1.10;;
29120;SDS011;16191;49.548;8.658;2022-11-18T06:41:41;2.05;;;0.90;;
29120;SDS011;16191;49.548;8.658;2022-11-18T06:44:10;3.97;;;1.10;;
29120;SDS011;16191;49.548;8.658;2022-11-18T06:46:37;2.67;;;0.80;;
29120;SDS011;16191;49.548;8.658;2022-11-18T06:49:23;4.55;;;1.13;;
29120;SDS011;16191;49.548;8.658;2022-11-18T06:51:52;1.70;;;1.00;;
29120;SDS011;16191;49.548;8.658;2022-11-18T06:54:21;3.80;;;1.00;;
29120;SDS011;16191;49.548;8.658;2022-11-18T06:56:48;4.15;;;1.20;;
29120;SDS011;16191;49.548;8.658;2022-11-18T06:59:14;4.45;;;1.20;;
29120;SDS011;16191;49.548;8.658;2022-11-18T07:01:47;6.05;;;1.50;;
29120;SDS011;16191;49.548;8.658;2022-11-18T07:04:14;4.00;;;0.98;;
29120;SDS011;16191;49.548;8.658;2022-11-18T07:06:41;6.40;;;1.60;;
29120;SDS011;16191;49.548;8.658;2022-11-18T07:09:08;5.25;;;1.75;;
29120;SDS011;16191;49.548;8.658;2022-11-18T07:11:34;3.15;;;1.08;;
29120;SDS011;16191;49.548;8.658;2022-11-18T07:14:03;3.80;;;1.20;;
29120;SDS011;16191;49.548;8.658;2022-11-18T07:16:30;3.33;;;1.33;;
29120;SDS011;16191;49.548;8.658;2022-11-18T07:18:59;2.85;;;1.10;;
29120;SDS011;16191;49.548;8.658;2022-11-18T07:21:26;4.30;;;1.13;;
29120;SDS011;16191;49.548;8.658;2022-11-18T07:23:55;5.22;;;1.80;;
29120;SDS011;16191;49.548;8.658;2022-11-18T07:26:23;2.40;;;1.40;;
29120;SDS011;16191;49.548;8.658;2022-11-18T07:28:49;9.18;;;1.75;;
29120;SDS011;16191;49.548;8.658;2022-11-18T07:31:17;5.40;;;1.50;;
29120;SDS011;16191;49.548;8.658;2022-11-18T07:33:46;3.30;;;1.20;;
29120;SDS011;16191;49.548;8.658;2022-11-18T07:36:14;7.57;;;1.23;;
29120;SDS011;16191;49.548;8.658;2022-11-18T07:38:43;3.92;;;1.20;;
29120;SDS011;16191;49.548;8.658;2022-11-18T07:41:12;2.55;;;1.40;;
29120;SDS011;16191;49.548;8.658;2022-11-18T07:43:41;3.22;;;1.90;;
29120;SDS011;16191;49.548;8.658;2022-11-18T07:46:13;5.53;;;2.05;;
29120;SDS011;16191;49.548;8.658;2022-11-18T07:48:43;3.78;;;1.98;;
29120;SDS011;16191;49.548;8.658;2022-11-18T07:51:12;5.15;;;2.53;;
29120;SDS011;16191;49.548;8.658;2022-11-18T07:53:40;6.55;;;2.90;;
29120;SDS011;16191;49.548;8.658;2022-11-18T07:56:08;6.88;;;3.50;;
29120;SDS011;16191;49.548;8.658;2022-11-18T07:58:35;6.50;;;3.47;;
29120;SDS011;16191;49.548;8.658;2022-11-18T08:01:08;5.20;;;2.70;;
29120;SDS011;16191;49.548;8.658;2022-11-18T08:03:36;10.43;;;3.72;;
29120;SDS011;16191;49.548;8.658;2022-11-18T08:06:03;6.95;;;3.05;;
29120;SDS011;16191;49.548;8.658;2022-11-18T08:08:32;13.23;;;4.85;;
29120;SDS011;16191;49.548;8.658;2022-11-18T08:11:00;4.07;;;1.92;;
29120;SDS011;16191;49.548;8.658;2022-11-18T08:13:28;2.42;;;1.38;;
29120;SDS011;16191;49.548;8.658;2022-11-18T08:15:55;3.67;;;1.48;;
29120;SDS011;16191;49.548;8.658;2022-11-18T08:18:22;3.33;;;1.00;;
29120;SDS011;16191;49.548;8.658;2022-11-18T08:20:49;4.13;;;1.38;;
29120;SDS011;16191;49.548;8.658;2022-11-18T08:23:16;2.20;;;1.30;;
29120;SDS011;16191;49.548;8.658;2022-11-18T08:25:43;2.38;;;1.20;;
29120;SDS011;16191;49.548;8.658;2022-11-18T08:28:12;1.80;;;1.10;;
29120;SDS011;16191;49.548;8.658;2022-11-18T08:30:40;2.22;;;1.23;;
29120;SDS011;16191;49.548;8.658;2022-11-18T08:33:07;2.15;;;1.30;;
29120;SDS011;16191;49.548;8.658;2022-11-18T08:35:34;2.80;;;1.10;;
29120;SDS011;16191;49.548;8.658;2022-11-18T08:38:00;4.45;;;1.45;;
29120;SDS011;16191;49.548;8.658;2022-11-18T08:40:27;4.80;;;1.15;;
29120;SDS011;16191;49.548;8.658;2022-11-18T08:42:54;2.58;;;1.33;;
29120;SDS011;16191;49.548;8.658;2022-11-18T08:45:20;4.78;;;1.17;;
29120;SDS011;16191;49.548;8.658;2022-11-18T08:47:47;5.82;;;1.60;;
29120;SDS011;16191;49.548;8.658;2022-11-18T08:50:14;3.67;;;1.10;;
29120;SDS011;16191;49.548;8.658;2022-11-18T08:52:41;3.33;;;1.15;;
29120;SDS011;16191;49.548;8.658;2022-11-18T08:55:08;4.45;;;1.52;;
29120;SDS011;16191;49.548;8.658;2022-11-18T08:57:35;2.28;;;1.38;;
29120;SDS011;16191;49.548;8.658;2022-11-18T09:00:03;3.15;;;1.40;;
29120;SDS011;16191;49.548;8.658;2022-11-18T09:02:30;1.73;;;1.20;;
29120;SDS011;16191;49.548;8.658;2022-11-18T09:04:57;2.85;;;1.58;;
29120;SDS011;16191;49.548;8.658;2022-11-18T09:07:24;2.40;;;1.33;;
29120;SDS011;16191;49.548;8.658;2022-11-18T09:09:51;1.80;;;1.33;;
29120;SDS011;16191;49.548;8.658;2022-11-18T09:12:17;2.55;;;1.25;;
29120;SDS011;16191;49.548;8.658;2022-11-18T09:14:44;2.05;;;1.67;;
29120;SDS011;16191;49.548;8.658;2022-11-18T09:17:31;4.10;;;1.85;;
29120;SDS011;16191;49.548;8.658;2022-11-18T09:19:58;2.20;;;1.55;;
29120;SDS011;16191;49.548;8.658;2022-11-18T09:22:24;2.72;;;1.77;;
29120;SDS011;16191;49.548;8.658;2022-11-18T09:24:51;2.45;;;1.70;;
29120;SDS011;16191;49.548;8.658;2022-11-18T09:27:18;4.70;;;1.52;;
29120;SDS011;16191;49.548;8.658;2022-11-18T09:29:45;3.30;;;1.63;;
29120;SDS011;16191;49.548;8.658;2022-11-18T09:32:12;4.15;;;1.83;;
29120;SDS011;16191;49.548;8.658;2022-11-18T09:34:39;5.13;;;1.65;;
29120;SDS011;16191;49.548;8.658;2022-11-18T09:37:05;3.25;;;2.05;;
29120;SDS011;16191;49.548;8.658;2022-11-18T09:39:33;5.35;;;1.80;;
29120;SDS011;16191;49.548;8.658;2022-11-18T09:47:26;3.25;;;2.17;;
29120;SDS011;16191;49.548;8.658;2022-11-18T09:50:02;4.80;;;1.85;;
29120;SDS011;16191;49.548;8.658;2022-11-18T09:55:21;3.55;;;2.33;;
29120;SDS011;16191;49.548;8.658;2022-11-18T09:57:49;2.83;;;1.88;;
29120;SDS011;16191;49.548;8.658;2022-11-18T10:00:22;2.05;;;1.80;;
29120;SDS011;16191;49.548;8.658;2022-11-18T10:02:54;3.05;;;1.70;;
29120;SDS011;16191;49.548;8.658;2022-11-18T10:05:26;3.00;;;1.67;;
29120;SDS011;16191;49.548;8.658;2022-11-18T10:10:43;4.22;;;1.80;;
29120;SDS011;16191;49.548;8.658;2022-11-18T10:13:14;3.25;;;2.10;;
29120;SDS011;16191;49.548;8.658;2022-11-18T10:16:01;1.65;;;1.55;;
29120;SDS011;16191;49.548;8.658;2022-11-18T10:24:54;3.88;;;1.50;;
29120;SDS011;16191;49.548;8.658;2022-11-18T10:27:23;4.28;;;1.95;;
29120;SDS011;16191;49.548;8.658;2022-11-18T10:29:58;5.47;;;2.20;;
29120;SDS011;16191;49.548;8.658;2022-11-18T10:32:26;3.25;;;2.00;;
29120;SDS011;16191;49.548;8.658;2022-11-18T10:34:57;3.95;;;2.00;;
29120;SDS011;16191;49.548;8.658;2022-11-18T10:40:22;5.85;;;2.72;;
29120;SDS011;16191;49.548;8.658;2022-11-18T10:42:50;6.13;;;2.30;;
29120;SDS011;16191;49.548;8.658;2022-11-18T10:53:02;3.78;;;2.60;;
29120;SDS011;16191;49.548;8.658;2022-11-18T10:55:30;4.43;;;2.33;;
29120;SDS011;16191;49.548;8.658;2022-11-18T10:58:02;3.75;;;2.50;;
29120;SDS011;16191;49.548;8.658;2022-11-18T11:00:42;4.68;;;2.55;;
29120;SDS011;16191;49.548;8.658;2022-11-18T11:03:23;5.72;;;2.47;;
29120;SDS011;16191;49.548;8.658;2022-11-18T11:08:46;3.83;;;2.22;;
29120;SDS011;16191;49.548;8.658;2022-11-18T11:14:30;3.95;;;2.50;;
29120;SDS011;16191;49.548;8.658;2022-11-18T11:17:11;3.10;;;2.53;;
29120;SDS011;16191;49.548;8.658;2022-11-18T11:22:21;4.80;;;3.65;;
29120;SDS011;16191;49.548;8.658;2022-11-18T11:24:48;4.85;;;3.08;;
29120;SDS011;16191;49.548;8.658;2022-11-18T11:30:19;11.70;;;3.53;;
29120;SDS011;16191;49.548;8.658;2022-11-18T11:41:23;6.68;;;3.30;;
29120;SDS011;16191;49.548;8.658;2022-11-18T11:44:06;4.75;;;2.65;;
29120;SDS011;16191;49.548;8.658;2022-11-18T11:55:25;4.63;;;2.25;;
29120;SDS011;16191;49.548;8.658;2022-11-18T12:00:54;8.23;;;2.83;;
29120;SDS011;16191;49.548;8.658;2022-11-18T12:03:44;4.63;;;2.72;;
29120;SDS011;16191;49.548;8.658;2022-11-18T12:06:17;4.35;;;2.83;;
29120;SDS011;16191;49.548;8.658;2022-11-18T12:08:51;4.85;;;2.40;;
29120;SDS011;16191;49.548;8.658;2022-11-18T12:11:40;4.18;;;2.70;;
29120;SDS011;16191;49.548;8.658;2022-11-18T12:14:25;4.18;;;2.40;;
29120;SDS011;16191;49.548;8.658;2022-11-18T12:19:50;6.25;;;3.05;;
29120;SDS011;16191;49.548;8.658;2022-11-18T12:22:17;3.83;;;2.80;;
29120;SDS011;16191;49.548;8.658;2022-11-18T12:24:44;6.20;;;2.95;;
29120;SDS011;16191;49.548;8.658;2022-11-18T12:27:12;4.55;;;3.10;;
29120;SDS011;16191;49.548;8.658;2022-11-18T12:29:59;4.88;;;2.63;;
29120;SDS011;16191;49.548;8.658;2022-11-18T12:32:35;9.45;;;2.70;;
29120;SDS011;16191;49.548;8.658;2022-11-18T12:40:08;7.15;;;3.05;;
29120;SDS011;16191;49.548;8.658;2022-11-18T12:42:38;6.65;;;2.60;;
29120;SDS011;16191;49.548;8.658;2022-11-18T12:50:54;8.65;;;2.90;;
29120;SDS011;16191;49.548;8.658;2022-11-18T12:53:38;7.45;;;2.70;;
29120;SDS011;16191;49.548;8.658;2022-11-18T12:58:53;7.15;;;3.35;;
29120;SDS011;16191;49.548;8.658;2022-11-18T13:01:25;5.05;;;2.60;;
29120;SDS011;16191;49.548;8.658;2022-11-18T13:06:50;5.50;;;3.08;;
29120;SDS011;16191;49.548;8.658;2022-11-18T13:09:21;3.67;;;2.47;;
29120;SDS011;16191;49.548;8.658;2022-11-18T13:12:12;5.38;;;3.08;;
29120;SDS011;16191;49.548;8.658;2022-11-18T13:14:42;6.63;;;3.28;;
29120;SDS011;16191;49.548;8.658;2022-11-18T13:17:36;7.95;;;2.33;;
29120;SDS011;16191;49.548;8.658;2022-11-18T13:20:27;3.55;;;1.90;;
29120;SDS011;16191;49.548;8.658;2022-11-18T13:22:57;1.63;;;1.17;;
29120;SDS011;16191;49.548;8.658;2022-11-18T13:34:47;4.50;;;1.83;;
29120;SDS011;16191;49.548;8.658;2022-11-18T13:37:21;6.38;;;1.40;;
29120;SDS011;16191;49.548;8.658;2022-11-18T13:39:48;2.13;;;1.15;;
29120;SDS011;16191;49.548;8.658;2022-11-18T13:44:53;4.30;;;1.10;;
29120;SDS011;16191;49.548;8.658;2022-11-18T13:47:47;9.68;;;2.58;;
29120;SDS011;16191;49.548;8.658;2022-11-18T13:53:10;3.15;;;1.00;;
29120;SDS011;16191;49.548;8.658;2022-11-18T13:55:53;3.78;;;0.85;;
29120;SDS011;16191;49.548;8.658;2022-11-18T14:03:53;2.97;;;1.13;;
29120;SDS011;16191;49.548;8.658;2022-11-18T14:06:24;3.50;;;1.15;;
29120;SDS011;16191;49.548;8.658;2022-11-18T14:09:03;4.25;;;1.20;;
29120;SDS011;16191;49.548;8.658;2022-11-18T14:14:07;6.72;;;1.17;;
29120;SDS011;16191;49.548;8.658;2022-11-18T14:16:36;3.08;;;1.25;;
29120;SDS011;16191;49.548;8.658;2022-11-18T14:19:05;4.82;;;1.30;;
29120;SDS011;16191;49.548;8.658;2022-11-18T14:21:34;3.67;;;1.20;;
29120;SDS011;16191;49.548;8.658;2022-11-18T14:24:03;4.88;;;1.70;;
29120;SDS011;16191;49.548;8.658;2022-11-18T14:26:32;4.03;;;1.60;;
29120;SDS011;16191;49.548;8.658;2022-11-18T14:29:16;6.88;;;1.60;;
29120;SDS011;16191;49.548;8.658;2022-11-18T14:34:37;6.28;;;1.73;;
29120;SDS011;16191;49.548;8.658;2022-11-18T14:37:08;7.30;;;2.30;;
29120;SDS011;16191;49.548;8.658;2022-11-18T14:39:37;4.45;;;1.60;;
29120;SDS011;16191;49.548;8.658;2022-11-18T14:42:08;5.75;;;1.90;;
29120;SDS011;16191;49.548;8.658;2022-11-18T14:44:38;5.93;;;2.00;;
29120;SDS011;16191;49.548;8.658;2022-11-18T14:47:13;7.20;;;1.85;;
29120;SDS011;16191;49.548;8.658;2022-11-18T14:49:50;4.90;;;1.80;;
29120;SDS011;16191;49.548;8.658;2022-11-18T14:52:17;5.50;;;2.38;;
29120;SDS011;16191;49.548;8.658;2022-11-18T14:54:43;5.25;;;2.10;;
29120;SDS011;16191;49.548;8.658;2022-11-18T14:57:11;7.93;;;2.33;;
29120;SDS011;16191;49.548;8.658;2022-11-18T14:59:41;6.57;;;2.15;;
29120;SDS011;16191;49.548;8.658;2022-11-18T15:02:14;5.43;;;2.85;;
29120;SDS011;16191;49.548;8.658;2022-11-18T15:04:42;9.88;;;2.95;;
29120;SDS011;16191;49.548;8.658;2022-11-18T15:07:13;6.65;;;2.55;;
29120;SDS011;16191;49.548;8.658;2022-11-18T15:09:48;10.13;;;2.65;;
29120;SDS011;16191;49.548;8.658;2022-11-18T15:12:15;5.75;;;2.70;;
29120;SDS011;16191;49.548;8.658;2022-11-18T15:14:42;10.85;;;3.33;;
29120;SDS011;16191;49.548;8.658;2022-11-18T15:17:09;7.60;;;2.92;;
29120;SDS011;16191;49.548;8.658;2022-11-18T15:19:37;5.00;;;2.60;;
29120;SDS011;16191;49.548;8.658;2022-11-18T15:22:06;6.45;;;3.00;;
29120;SDS011;16191;49.548;8.658;2022-11-18T15:24:33;5.15;;;2.40;;
29120;SDS011;16191;49.548;8.658;2022-11-18T15:27:00;5.07;;;2.45;;
29120;SDS011;16191;49.548;8.658;2022-11-18T15:31:57;7.38;;;2.83;;
29120;SDS011;16191;49.548;8.658;2022-11-18T15:34:25;5.30;;;2.40;;
29120;SDS011;16191;49.548;8.658;2022-11-18T15:36:52;10.18;;;2.67;;
29120;SDS011;16191;49.548;8.658;2022-11-18T15:39:18;7.03;;;3.05;;
29120;SDS011;16191;49.548;8.658;2022-11-18T15:41:45;8.43;;;2.90;;
29120;SDS011;16191;49.548;8.658;2022-11-18T15:44:12;9.40;;;2.53;;
29120;SDS011;16191;49.548;8.658;2022-11-18T15:46:39;8.55;;;3.28;;
29120;SDS011;16191;49.548;8.658;2022-11-18T15:49:06;7.15;;;2.67;;
29120;SDS011;16191;49.548;8.658;2022-11-18T15:51:37;10.52;;;2.90;;
29120;SDS011;16191;49.548;8.658;2022-11-18T15:54:05;9.80;;;2.80;;
29120;SDS011;16191;49.548;8.658;2022-11-18T15:56:32;6.03;;;2.58;;
29120;SDS011;16191;49.548;8.658;2022-11-18T15:59:00;8.73;;;3.30;;
29120;SDS011;16191;49.548;8.658;2022-11-18T16:01:33;9.82;;;2.90;;
29120;SDS011;16191;49.548;8.658;2022-11-18T16:04:03;9.40;;;2.67;;
29120;SDS011;16191;49.548;8.658;2022-11-18T16:06:31;8.75;;;3.15;;
29120;SDS011;16191;49.548;8.658;2022-11-18T16:08:57;8.60;;;2.35;;
29120;SDS011;16191;49.548;8.658;2022-11-18T16:11:26;9.50;;;2.92;;
29120;SDS011;16191;49.548;8.658;2022-11-18T16:14:13;9.65;;;2.38;;
29120;SDS011;16191;49.548;8.658;2022-11-18T16:16:42;12.20;;;3.00;;
29120;SDS011;16191;49.548;8.658;2022-11-18T16:19:11;14.02;;;2.63;;
29120;SDS011;16191;49.548;8.658;2022-11-18T16:21:42;9.63;;;2.90;;
29120;SDS011;16191;49.548;8.658;2022-11-18T16:24:13;8.25;;;2.53;;
29120;SDS011;16191;49.548;8.658;2022-11-18T16:26:42;10.07;;;2.38;;
29120;SDS011;16191;49.548;8.658;2022-11-18T16:29:10;11.88;;;2.85;;
29120;SDS011;16191;49.548;8.658;2022-11-18T16:31:38;9.75;;;3.05;;
29120;SDS011;16191;49.548;8.658;2022-11-18T16:34:10;13.30;;;2.95;;
29120;SDS011;16191;49.548;8.658;2022-11-18T16:36:40;11.80;;;2.40;;
29120;SDS011;16191;49.548;8.658;2022-11-18T16:39:12;7.35;;;2.50;;
29120;SDS011;16191;49.548;8.658;2022-11-18T16:41:41;9.38;;;2.63;;
29120;SDS011;16191;49.548;8.658;2022-11-18T16:44:11;9.68;;;2.38;;
29120;SDS011;16191;49.548;8.658;2022-11-18T16:46:46;9.40;;;2.03;;
29120;SDS011;16191;49.548;8.658;2022-11-18T16:49:15;9.65;;;2.70;;
29120;SDS011;16191;49.548;8.658;2022-11-18T16:51:45;12.47;;;2.77;;
29120;SDS011;16191;49.548;8.658;2022-11-18T16:54:20;7.03;;;2.45;;
29120;SDS011;16191;49.548;8.658;2022-11-18T16:56:49;6.97;;;2.40;;
29120;SDS011;16191;49.548;8.658;2022-11-18T16:59:17;8.70;;;2.78;;
29120;SDS011;16191;49.548;8.658;2022-11-18T17:01:49;7.88;;;2.40;;
29120;SDS011;16191;49.548;8.658;2022-11-18T17:04:18;9.32;;;2.88;;
29120;SDS011;16191;49.548;8.658;2022-11-18T17:06:45;8.10;;;3.00;;
29120;SDS011;16191;49.548;8.658;2022-11-18T17:09:13;11.40;;;4.45;;
29120;SDS011;16191;49.548;8.658;2022-11-18T17:11:43;8.93;;;4.28;;